Time;durP1;ratioP1;P1;durP2;ratioP2;P2;SDS_P1;SDS_P2;PMS_P1;PMS_P2;Temp;Humidity;BMP_temperature;BMP_pressure;BME280_temperature;BME280_humidity;BME280_pressure;Samples;Min_cycle;Max_cycle;Signal;HPM_P1;HPM_P2
2022/04/04 00:00:16;;;;;;;13.23;7.80;;;;;;;1.54;86.06;101873.81;5054554;28;20033;-67
2022/04/04 00:02:42;;;;;;;11.38;7.55;;;;;;;1.58;86.41;101878.25;5054458;28;20032;-67
2022/04/04 00:05:07;;;;;;;9.95;7.20;;;;;;;1.58;86.70;101867.94;5054333;28;20025;-68
2022/04/04 00:07:33;;;;;;;13.55;7.50;;;;;;;1.54;87.15;101868.66;5053929;28;20175;-68
2022/04/04 00:09:58;;;;;;;11.63;7.70;;;;;;;1.55;86.93;101856.63;5054205;28;20090;-68
2022/04/04 00:12:24;;;;;;;10.52;7.40;;;;;;;1.51;86.83;101857.34;5054195;28;20033;-68
2022/04/04 00:14:50;;;;;;;11.77;7.47;;;;;;;1.54;86.80;101860.03;5054419;28;20033;-68
2022/04/04 00:17:15;;;;;;;12.95;8.18;;;;;;;1.53;86.94;101848.84;5057978;28;20037;-69
2022/04/04 00:19:40;;;;;;;12.23;7.72;;;;;;;1.53;86.48;101847.97;5058136;28;20031;-70
2022/04/04 00:22:06;;;;;;;10.40;7.45;;;;;;;1.56;86.38;101851.50;5057937;28;20040;-69
2022/04/04 00:24:32;;;;;;;12.10;7.53;;;;;;;1.57;86.78;101844.66;5057838;28;20040;-68
2022/04/04 00:26:57;;;;;;;12.25;7.95;;;;;;;1.55;86.96;101839.47;5057886;28;20040;-69
2022/04/04 00:29:24;;;;;;;11.57;7.50;;;;;;;1.54;86.54;101840.28;5057391;28;20052;-68
2022/04/04 00:31:50;;;;;;;10.52;7.57;;;;;;;1.51;86.46;101841.84;5057784;28;20041;-69
2022/04/04 00:34:16;;;;;;;10.63;7.93;;;;;;;1.49;86.81;101831.47;5057797;28;20047;-68
2022/04/04 00:36:43;;;;;;;13.27;8.57;;;;;;;1.57;86.18;101827.47;5057490;28;20041;-67
2022/04/04 00:39:08;;;;;;;14.23;8.40;;;;;;;1.51;86.34;101821.22;5057433;28;20419;-66
2022/04/04 00:41:34;;;;;;;12.90;8.20;;;;;;;1.46;86.60;101818.47;5057808;28;20080;-68
2022/04/04 00:43:59;;;;;;;11.23;8.05;;;;;;;1.48;86.26;101816.81;5057597;28;20032;-67
2022/04/04 00:46:24;;;;;;;12.43;8.68;;;;;;;1.46;86.33;101813.28;5057713;28;20029;-67
2022/04/04 00:48:49;;;;;;;12.95;8.15;;;;;;;1.47;86.55;101816.75;5057449;28;20025;-66
2022/04/04 00:51:15;;;;;;;11.70;8.02;;;;;;;1.46;86.71;101809.84;5057571;28;20037;-68
2022/04/04 00:53:41;;;;;;;12.65;8.25;;;;;;;1.43;86.37;101807.13;5057484;28;20493;-69
2022/04/04 00:56:07;;;;;;;13.63;8.85;;;;;;;1.44;86.75;101809.78;5057525;28;20040;-67
2022/04/04 00:58:36;;;;;;;14.90;8.52;;;;;;;1.44;86.76;101811.47;5057173;28;20093;-69
2022/04/04 01:01:04;;;;;;;14.48;8.82;;;;;;;1.46;86.77;101805.56;5056930;28;20424;-68
2022/04/04 01:03:30;;;;;;;13.93;9.05;;;;;;;1.42;86.62;101788.19;5057105;28;20028;-68
2022/04/04 01:05:58;;;;;;;11.60;8.50;;;;;;;1.35;87.21;101797.41;5057038;28;20051;-69
2022/04/04 01:08:23;;;;;;;12.13;8.35;;;;;;;1.35;87.26;101794.84;5056765;28;20396;-67
2022/04/04 01:10:49;;;;;;;12.65;8.43;;;;;;;1.38;86.78;101791.50;5057126;28;20139;-69
2022/04/04 01:13:14;;;;;;;13.05;8.40;;;;;;;1.38;86.58;101786.34;5056922;28;20087;-69
2022/04/04 01:15:39;;;;;;;15.05;8.60;;;;;;;1.35;86.01;101776.78;5056696;28;20048;-68
2022/04/04 01:18:07;;;;;;;15.32;8.30;;;;;;;1.45;85.38;101767.69;5056949;28;20479;-68
2022/04/04 01:20:33;;;;;;;12.90;8.43;;;;;;;1.36;86.26;101768.25;5057166;28;20037;-68
2022/04/04 01:22:58;;;;;;;15.60;9.10;;;;;;;1.41;85.99;101765.81;5057189;28;20364;-68
2022/04/04 01:25:26;;;;;;;11.55;8.07;;;;;;;1.44;85.13;101758.19;5056763;28;20033;-67
2022/04/04 01:27:51;;;;;;;13.30;8.10;;;;;;;1.40;85.30;101748.59;5056592;28;20130;-68
2022/04/04 01:30:17;;;;;;;12.15;8.55;;;;;;;1.39;85.76;101749.41;5056985;28;20127;-68
2022/04/04 01:32:44;;;;;;;12.88;8.63;;;;;;;1.37;85.27;101748.50;5056643;28;20067;-67
2022/04/04 01:35:09;;;;;;;14.55;8.50;;;;;;;1.39;85.26;101744.25;5056638;28;20055;-68
2022/04/04 01:37:35;;;;;;;12.90;8.65;;;;;;;1.42;85.04;101746.94;5056442;28;20029;-68
2022/04/04 01:40:01;;;;;;;10.75;7.93;;;;;;;1.58;83.62;101723.47;5056562;28;20025;-67
2022/04/04 01:42:26;;;;;;;14.48;8.23;;;;;;;1.48;84.59;101720.50;5056754;28;20029;-68
2022/04/04 01:44:51;;;;;;;13.98;8.40;;;;;;;1.49;84.22;101723.16;5056341;28;20114;-68
2022/04/04 01:47:16;;;;;;;15.05;8.90;;;;;;;1.58;83.76;101709.69;5056335;28;20028;-68
2022/04/04 01:49:42;;;;;;;13.00;8.50;;;;;;;1.45;84.76;101712.66;5056172;28;20383;-68
2022/04/04 01:52:07;;;;;;;15.35;9.30;;;;;;;1.44;84.37;101708.31;5056298;28;20037;-67
2022/04/04 01:54:33;;;;;;;15.07;8.63;;;;;;;1.37;84.64;101696.91;5056692;28;20029;-68
2022/04/04 01:56:58;;;;;;;13.85;8.60;;;;;;;1.32;84.74;101699.31;5056024;28;20039;-66
2022/04/04 01:59:23;;;;;;;14.82;8.57;;;;;;;1.42;84.16;101691.91;5056278;28;20025;-69
2022/04/04 02:01:48;;;;;;;11.40;7.75;;;;;;;1.29;84.21;101683.72;5056289;28;20033;-67
2022/04/04 02:04:14;;;;;;;13.57;8.27;;;;;;;1.22;84.63;101673.09;5056170;28;20340;-69
2022/04/04 02:06:39;;;;;;;11.40;8.10;;;;;;;1.36;84.55;101682.28;5056309;28;20029;-68
2022/04/04 02:09:05;;;;;;;11.63;8.02;;;;;;;1.38;83.92;101676.34;5055973;28;20032;-68
2022/04/04 02:11:30;;;;;;;12.45;8.00;;;;;;;1.49;83.49;101670.69;5055953;28;20021;-68
2022/04/04 02:13:57;;;;;;;12.25;7.82;;;;;;;1.35;83.85;101670.19;5055800;28;20048;-67
2022/04/04 02:16:23;;;;;;;13.02;8.20;;;;;;;1.41;83.85;101662.66;5055987;28;20479;-69
2022/04/04 02:18:48;;;;;;;12.63;7.93;;;;;;;1.40;83.83;101661.78;5055785;28;20033;-68
2022/04/04 02:21:13;;;;;;;12.25;7.72;;;;;;;1.45;83.47;101661.09;5055972;28;20065;-68
2022/04/04 02:23:39;;;;;;;12.80;8.18;;;;;;;1.40;83.77;101651.47;5055793;28;20348;-68
2022/04/04 02:26:04;;;;;;;10.75;6.55;;;;;;;1.47;83.69;101656.88;5055735;28;20028;-68
2022/04/04 02:28:30;;;;;;;11.00;7.38;;;;;;;1.46;83.45;101655.97;5055311;28;20028;-68
2022/04/04 02:30:56;;;;;;;11.43;8.25;;;;;;;1.56;83.05;101647.75;5055582;28;20029;-68
2022/04/04 02:33:22;;;;;;;12.48;6.95;;;;;;;1.57;83.36;101643.47;5055385;28;20036;-69
2022/04/04 02:35:50;;;;;;;13.80;7.32;;;;;;;1.70;82.81;101633.66;5055427;28;20071;-69
2022/04/04 02:38:16;;;;;;;10.35;6.75;;;;;;;1.60;83.12;101622.94;5054916;28;20381;-67
2022/04/04 02:40:41;;;;;;;14.63;7.88;;;;;;;1.60;83.21;101616.09;5055542;28;20029;-68
2022/04/04 02:43:08;;;;;;;11.82;7.15;;;;;;;1.58;83.67;101620.31;5055213;28;20352;-67
2022/04/04 02:45:34;;;;;;;14.88;8.00;;;;;;;1.61;83.39;101615.25;5054887;28;20145;-68
2022/04/04 02:48:00;;;;;;;9.80;7.65;;;;;;;1.57;83.16;101605.66;5055064;28;20036;-68
2022/04/04 02:50:26;;;;;;;10.77;7.30;;;;;;;1.64;83.24;101604.19;5055341;28;20098;-68
2022/04/04 02:52:52;;;;;;;12.95;7.25;;;;;;;1.65;83.07;101606.81;5054967;28;20448;-68
2022/04/04 02:58:02;;;;;;;12.18;7.50;;;;;;;1.65;83.23;101588.75;5055364;28;20071;-67
2022/04/04 03:00:27;;;;;;;13.90;7.88;;;;;;;1.73;83.41;101587.28;5054891;28;20373;-68
2022/04/04 03:02:54;;;;;;;11.52;7.28;;;;;;;1.65;83.63;101575.84;5054924;28;20124;-68
2022/04/04 03:05:20;;;;;;;10.63;7.15;;;;;;;1.65;83.66;101578.44;5054924;28;20124;-68
2022/04/04 03:07:46;;;;;;;12.07;6.57;;;;;;;1.68;83.06;101573.38;5054990;28;20119;-69
2022/04/04 03:10:12;;;;;;;11.70;7.20;;;;;;;1.85;82.76;101567.91;5055023;28;20058;-67
2022/04/04 03:12:41;;;;;;;11.30;6.95;;;;;;;1.78;83.38;101559.09;5054954;28;20040;-68
2022/04/04 03:15:12;;;;;;;10.40;7.13;;;;;;;1.74;83.76;101552.94;5054932;28;20033;-67
2022/04/04 03:17:39;;;;;;;12.82;7.60;;;;;;;1.84;83.00;101548.97;5054318;28;20113;-68
2022/04/04 03:20:09;;;;;;;10.35;7.40;;;;;;;1.82;83.30;101542.88;5054632;28;20443;-69
2022/04/04 03:22:37;;;;;;;10.85;7.63;;;;;;;1.81;83.63;101535.09;5054762;28;20033;-67
2022/04/04 03:25:04;;;;;;;11.70;7.30;;;;;;;1.88;83.30;101526.72;5054906;28;20037;-69
2022/04/04 03:27:29;;;;;;;12.30;7.50;;;;;;;1.95;82.78;101524.38;5054654;28;20357;-69
2022/04/04 03:29:54;;;;;;;11.57;7.25;;;;;;;1.88;83.61;101521.56;5054761;28;20056;-70
2022/04/04 03:32:19;;;;;;;11.68;6.85;;;;;;;1.87;83.80;101522.41;5054680;28;20040;-68
2022/04/04 03:34:45;;;;;;;12.15;6.90;;;;;;;1.92;84.05;101519.13;5054784;28;20389;-67
2022/04/04 03:37:11;;;;;;;13.50;7.35;;;;;;;1.92;84.10;101520.81;5054619;28;20033;-68
2022/04/04 03:39:36;;;;;;;8.93;6.80;;;;;;;1.91;84.11;101512.19;5054527;28;20479;-67
2022/04/04 03:42:02;;;;;;;11.27;6.57;;;;;;;1.97;83.91;101506.38;5054603;28;20040;-68
2022/04/04 03:44:27;;;;;;;9.77;6.88;;;;;;;1.93;84.50;101499.34;5054369;28;20044;-68
2022/04/04 03:46:52;;;;;;;13.68;7.00;;;;;;;1.97;84.65;101490.88;5054339;28;20463;-68
2022/04/04 03:49:18;;;;;;;12.27;6.60;;;;;;;1.96;84.41;101497.75;5054194;28;20037;-67
2022/04/04 03:51:43;;;;;;;13.02;6.97;;;;;;;2.01;84.34;101482.41;5057696;28;20108;-68
2022/04/04 03:54:08;;;;;;;13.35;7.20;;;;;;;2.18;83.44;101477.78;5058853;28;20033;-68
2022/04/04 03:56:33;;;;;;;12.00;6.90;;;;;;;2.16;83.87;101476.84;5058542;28;20044;-68
2022/04/04 03:58:59;;;;;;;11.32;6.93;;;;;;;2.18;83.96;101463.16;5058379;28;20060;-68
2022/04/04 04:01:27;;;;;;;11.75;6.95;;;;;;;2.14;83.83;101471.63;5058217;28;20044;-68
2022/04/04 04:03:52;;;;;;;11.93;7.55;;;;;;;2.13;84.44;101472.47;5058270;28;20097;-68
2022/04/04 04:06:18;;;;;;;11.82;7.13;;;;;;;2.12;84.39;101467.25;5058302;28;20033;-67
2022/04/04 04:08:46;;;;;;;9.95;6.82;;;;;;;2.15;84.99;101468.22;5058277;28;20025;-68
2022/04/04 04:11:17;;;;;;;11.15;7.72;;;;;;;2.14;84.80;101466.47;5058562;28;20037;-67
2022/04/04 04:13:44;;;;;;;17.08;8.05;;;;;;;2.18;84.80;101457.13;5058094;28;20178;-67
2022/04/04 04:16:10;;;;;;;13.35;7.95;;;;;;;2.17;84.71;101451.09;5058247;28;20065;-67
2022/04/04 04:18:36;;;;;;;12.48;8.07;;;;;;;2.19;85.00;101456.28;5058212;28;20064;-68
2022/04/04 04:21:02;;;;;;;11.80;8.18;;;;;;;2.18;85.39;101455.41;5057676;28;20036;-68
2022/04/04 04:23:28;;;;;;;13.02;7.97;;;;;;;2.28;84.77;101441.06;5058046;28;20044;-67
2022/04/04 04:25:54;;;;;;;12.10;7.80;;;;;;;2.27;84.83;101428.97;5057786;28;20032;-68
2022/04/04 04:28:19;;;;;;;13.90;8.77;;;;;;;2.20;85.36;101422.78;5057894;28;20033;-66
2022/04/04 04:30:45;;;;;;;14.27;8.38;;;;;;;2.21;85.11;101409.03;5057823;28;20443;-67
2022/04/04 04:33:11;;;;;;;13.18;7.97;;;;;;;2.18;85.36;101408.94;5057919;28;20025;-67
2022/04/04 04:35:36;;;;;;;12.32;7.80;;;;;;;2.34;84.65;101416.31;5057610;28;20394;-68
2022/04/04 04:38:02;;;;;;;11.07;8.52;;;;;;;2.20;86.05;101409.88;5057633;28;20029;-67
2022/04/04 04:40:28;;;;;;;14.40;7.85;;;;;;;2.28;85.65;101397.16;5057720;28;20081;-68
2022/04/04 04:42:55;;;;;;;13.98;8.13;;;;;;;2.33;85.52;101396.47;5057852;28;20032;-67
2022/04/04 04:45:21;;;;;;;12.38;7.80;;;;;;;2.44;84.86;101397.66;5057761;28;20033;-67
2022/04/04 04:47:47;;;;;;;14.70;8.05;;;;;;;2.45;85.18;101390.78;5057559;28;20050;-68
2022/04/04 04:50:14;;;;;;;13.55;8.18;;;;;;;2.33;85.82;101380.97;5057622;28;20040;-65
2022/04/04 04:52:41;;;;;;;14.27;8.63;;;;;;;2.38;86.05;101381.13;5057781;28;20056;-65
2022/04/04 04:55:06;;;;;;;12.73;8.65;;;;;;;2.37;86.00;101377.66;5057560;28;20094;-66
2022/04/04 04:57:32;;;;;;;16.13;8.60;;;;;;;2.43;85.97;101367.47;5057151;28;20041;-66
2022/04/04 04:59:57;;;;;;;13.80;8.32;;;;;;;2.39;85.95;101372.53;5057262;28;20356;-66
2022/04/04 05:02:23;;;;;;;14.52;8.85;;;;;;;2.48;85.76;101367.63;5057012;28;20057;-66
2022/04/04 05:04:48;;;;;;;14.35;8.55;;;;;;;2.51;85.88;101356.50;5057166;28;20032;-65
2022/04/04 05:07:13;;;;;;;21.77;9.80;;;;;;;2.71;84.16;101350.16;5057089;28;20025;-65
2022/04/04 05:09:39;;;;;;;13.35;8.27;;;;;;;2.72;84.21;101345.03;5057187;28;20029;-66
2022/04/04 05:12:05;;;;;;;15.80;9.30;;;;;;;2.72;84.13;101339.00;5057208;28;20112;-66
2022/04/04 05:14:30;;;;;;;14.85;9.25;;;;;;;2.72;84.94;101341.59;5056830;28;20029;-66
2022/04/04 05:16:56;;;;;;;14.00;9.60;;;;;;;2.71;84.80;101338.13;5056678;28;20029;-65
2022/04/04 05:19:22;;;;;;;15.98;9.90;;;;;;;2.74;84.61;101321.81;5057255;28;20024;-65
2022/04/04 05:21:48;;;;;;;14.93;9.02;;;;;;;2.76;84.31;101327.91;5057004;28;20044;-57
2022/04/04 05:24:14;;;;;;;10.23;7.35;;;;;;;2.82;84.08;101327.19;5056686;28;20033;-56
2022/04/04 05:26:39;;;;;;;13.57;9.63;;;;;;;2.78;84.86;101321.03;5056796;28;20791;-68
2022/04/04 05:29:05;;;;;;;15.05;10.00;;;;;;;2.82;84.88;101322.88;5056750;28;20467;-66
2022/04/04 05:31:31;;;;;;;16.75;9.85;;;;;;;2.92;84.04;101304.19;5056926;28;20032;-66
2022/04/04 05:33:58;;;;;;;13.60;10.25;;;;;;;3.00;84.09;101307.84;5056947;28;20083;-66
2022/04/04 05:36:25;;;;;;;17.33;10.32;;;;;;;3.00;84.13;101294.91;5056609;28;20037;-66
2022/04/04 05:38:50;;;;;;;18.75;9.77;;;;;;;3.01;84.34;101288.91;5056618;28;20029;-67
2022/04/04 05:41:17;;;;;;;15.30;10.05;;;;;;;3.03;83.53;101289.81;5056590;28;20045;-67
2022/04/04 05:43:44;;;;;;;15.35;10.23;;;;;;;2.99;84.54;101280.22;5056863;28;20064;-67
2022/04/04 05:46:10;;;;;;;15.82;10.20;;;;;;;3.00;84.58;101284.56;5056770;28;20063;-67
2022/04/04 05:48:36;;;;;;;13.10;9.27;;;;;;;3.05;83.92;101280.41;5056155;28;20036;-67
2022/04/04 05:51:02;;;;;;;14.73;9.30;;;;;;;3.10;83.63;101283.97;5056728;28;20033;-67
2022/04/04 05:53:27;;;;;;;15.23;10.15;;;;;;;3.09;83.43;101265.84;5055271;28;20025;-67
2022/04/04 05:55:52;;;;;;;14.80;10.65;;;;;;;3.23;82.84;101263.56;5056049;28;20043;-67
2022/04/04 05:58:18;;;;;;;17.13;9.43;;;;;;;3.17;82.46;101248.78;5056576;28;20037;-66
2022/04/04 06:00:43;;;;;;;18.52;9.80;;;;;;;3.25;83.15;101255.00;5056027;28;20029;-66
2022/04/04 06:03:08;;;;;;;15.48;10.02;;;;;;;3.34;82.46;101255.19;5055812;28;20033;-66
2022/04/04 06:05:35;;;;;;;17.35;10.00;;;;;;;3.43;82.21;101244.19;5056052;28;20041;-66
2022/04/04 06:08:00;;;;;;;17.27;9.57;;;;;;;3.42;82.10;101235.56;5056360;28;20112;-66
2022/04/04 06:10:26;;;;;;;17.13;9.38;;;;;;;3.36;82.51;101255.22;5055808;28;20132;-66
2022/04/04 06:12:51;;;;;;;15.40;10.35;;;;;;;3.44;82.15;101236.47;5054952;28;20048;-66
2022/04/04 06:15:16;;;;;;;15.02;9.77;;;;;;;3.43;82.23;101254.53;5055780;28;20040;-64
2022/04/04 06:17:43;;;;;;;15.13;10.32;;;;;;;3.41;82.26;101238.13;5055857;28;20036;-66
2022/04/04 06:20:10;;;;;;;18.45;10.80;;;;;;;3.52;81.57;101238.34;5061664;28;20024;-66
2022/04/04 06:22:36;;;;;;;18.33;10.80;;;;;;;3.50;81.85;101231.41;5073306;28;20512;-66
2022/04/04 06:25:03;;;;;;;17.27;10.73;;;;;;;3.54;82.05;101232.34;5055782;28;20385;-56
2022/04/04 06:27:29;;;;;;;18.92;10.85;;;;;;;3.55;81.48;101231.50;5055425;28;20416;-69
2022/04/04 06:29:54;;;;;;;17.10;9.95;;;;;;;3.66;80.78;101216.19;5055391;28;20049;-67
2022/04/04 06:32:19;;;;;;;16.80;10.80;;;;;;;3.65;80.57;101212.75;5055490;28;20032;-66
2022/04/04 06:34:44;;;;;;;18.42;11.05;;;;;;;3.76;80.64;101206.09;5055573;28;20025;-67
2022/04/04 06:37:10;;;;;;;14.15;8.30;;;;;;;3.76;79.92;101190.56;5055507;28;20048;-68
2022/04/04 06:39:36;;;;;;;22.90;11.63;;;;;;;3.91;79.85;101204.63;5055537;28;20113;-67
2022/04/04 06:42:02;;;;;;;18.58;11.05;;;;;;;4.09;79.16;101210.16;5055215;28;20024;-67
2022/04/04 06:44:28;;;;;;;20.60;10.55;;;;;;;4.15;78.69;101193.03;5055211;28;20036;-69
2022/04/04 06:46:53;;;;;;;20.15;10.38;;;;;;;4.30;78.29;101188.97;5055315;28;20025;-67
2022/04/04 06:49:18;;;;;;;17.20;10.68;;;;;;;4.29;78.49;101177.72;5054803;28;20043;-67
2022/04/04 06:51:44;;;;;;;13.63;9.93;;;;;;;4.25;78.61;101175.06;5054232;28;20041;-67
2022/04/04 06:54:09;;;;;;;19.48;10.88;;;;;;;4.31;77.97;101172.56;5071851;28;20104;-68
2022/04/04 06:56:34;;;;;;;16.58;9.65;;;;;;;4.36;77.73;101174.38;5075188;28;20436;-67
2022/04/04 06:59:01;;;;;;;15.30;10.00;;;;;;;4.40;77.19;101158.03;5074912;28;20150;-67
2022/04/04 07:01:26;;;;;;;16.65;9.85;;;;;;;4.50;77.59;101167.69;5075031;28;20028;-67
2022/04/04 07:03:51;;;;;;;18.52;9.85;;;;;;;4.63;77.24;101160.16;5074853;28;20089;-67
2022/04/04 07:06:16;;;;;;;15.50;9.88;;;;;;;4.72;75.79;101152.50;5075185;28;20435;-67
2022/04/04 07:08:43;;;;;;;15.32;9.90;;;;;;;4.73;75.74;101151.66;5074121;28;20032;-67
2022/04/04 07:11:10;;;;;;;16.30;9.80;;;;;;;4.81;76.34;101142.28;5066658;28;20455;-67
2022/04/04 07:13:36;;;;;;;16.55;9.98;;;;;;;4.99;75.63;101129.59;5065988;28;20024;-67
2022/04/04 07:16:01;;;;;;;15.55;9.48;;;;;;;4.98;74.92;101121.78;5067570;28;20088;-68
2022/04/04 07:18:27;;;;;;;13.38;9.40;;;;;;;5.03;74.61;101128.75;5070614;28;20032;-66
2022/04/04 07:20:52;;;;;;;13.90;8.43;;;;;;;5.13;73.70;101115.06;5058911;28;20056;-66
2022/04/04 07:23:17;;;;;;;14.15;10.35;;;;;;;5.05;74.04;101108.91;5058029;28;20039;-65
2022/04/04 07:25:42;;;;;;;16.08;9.40;;;;;;;5.08;74.17;101090.78;5069633;28;20028;-67
2022/04/04 07:28:08;;;;;;;16.88;9.32;;;;;;;5.16;73.76;101094.34;5057931;28;20419;-66
2022/04/04 07:30:34;;;;;;;15.32;9.90;;;;;;;5.13;73.58;101077.88;5054490;28;20055;-67
2022/04/04 07:33:01;;;;;;;12.02;9.07;;;;;;;5.12;73.44;101073.53;5065778;28;20033;-66
2022/04/04 07:35:27;;;;;;;13.95;9.60;;;;;;;5.19;73.32;101086.63;5070635;28;20529;-66
2022/04/04 07:37:52;;;;;;;11.20;9.40;;;;;;;5.20;73.63;101080.56;5065493;28;20041;-66
2022/04/04 07:40:20;;;;;;;14.55;9.68;;;;;;;5.28;73.44;101083.25;5062541;28;20071;-67
2022/04/04 07:42:47;;;;;;;15.90;9.70;;;;;;;5.31;73.92;101079.81;5060198;28;20033;-65
2022/04/04 07:45:14;;;;;;;15.20;9.70;;;;;;;5.37;73.40;101080.75;5059727;28;20032;-66
2022/04/04 07:47:41;;;;;;;11.90;8.95;;;;;;;5.51;72.39;101074.00;5070290;28;20037;-62
2022/04/04 07:50:09;;;;;;;15.90;9.55;;;;;;;5.42;72.88;101071.31;5069116;28;20419;-68
2022/04/04 07:52:34;;;;;;;14.55;9.38;;;;;;;5.47;73.40;101068.75;5068315;28;20064;-69
2022/04/04 07:55:00;;;;;;;13.15;9.38;;;;;;;5.49;73.74;101060.16;5059893;28;20087;-70
2022/04/04 07:57:25;;;;;;;18.50;9.90;;;;;;;5.59;74.01;101061.97;5063467;28;20048;-68
2022/04/04 07:59:51;;;;;;;13.25;9.45;;;;;;;5.69;72.97;101044.78;5055238;28;20052;-70
2022/04/04 08:02:17;;;;;;;13.02;9.43;;;;;;;5.79;72.16;101035.34;5070564;28;20452;-71
2022/04/04 08:04:42;;;;;;;15.00;9.80;;;;;;;5.70;72.31;101033.53;5062934;28;20078;-70
2022/04/04 08:07:07;;;;;;;14.45;9.77;;;;;;;5.86;71.87;101027.63;5054100;28;20391;-70
2022/04/04 08:09:33;;;;;;;14.27;9.32;;;;;;;5.96;71.37;101023.41;5054596;28;20036;-71
2022/04/04 08:11:58;;;;;;;15.98;9.60;;;;;;;6.05;71.43;101020.03;5054782;28;20040;-68
2022/04/04 08:14:24;;;;;;;16.42;10.23;;;;;;;6.12;71.54;101019.19;5062510;28;20040;-67
2022/04/04 08:16:50;;;;;;;14.13;8.98;;;;;;;6.24;71.47;101004.53;5054530;28;20527;-67
2022/04/04 08:19:16;;;;;;;19.77;9.60;;;;;;;6.35;70.05;101003.75;5054450;28;20100;-67
2022/04/04 08:21:42;;;;;;;14.45;9.82;;;;;;;6.38;69.59;101009.84;5069055;28;20033;-69
2022/04/04 08:24:08;;;;;;;19.33;9.63;;;;;;;6.45;69.08;101000.34;5065342;28;20044;-71
2022/04/04 08:26:34;;;;;;;15.98;8.98;;;;;;;6.50;68.64;100999.53;5063884;28;20048;-68
2022/04/04 08:29:00;;;;;;;13.95;8.25;;;;;;;6.52;68.74;100995.19;5062860;28;20131;-70
2022/04/04 08:31:25;;;;;;;18.17;9.38;;;;;;;6.55;68.46;100992.63;5062474;28;20072;-70
2022/04/04 08:33:51;;;;;;;16.80;8.05;;;;;;;6.63;67.91;100979.66;5053775;28;20095;-70
2022/04/04 08:36:16;;;;;;;14.95;8.38;;;;;;;6.60;68.26;100982.22;5062695;28;20033;-67
2022/04/04 08:38:41;;;;;;;20.30;8.55;;;;;;;6.72;67.97;100977.09;5077787;28;20120;-69
2022/04/04 08:41:09;;;;;;;17.98;8.52;;;;;;;6.80;67.62;100969.31;5076078;28;20463;-69
2022/04/04 08:43:43;;;;;;;15.52;7.95;;;;;;;6.98;66.79;100961.59;5077482;28;20420;-70
2022/04/04 08:46:09;;;;;;;19.92;8.80;;;;;;;6.98;65.85;100965.06;5064884;28;20451;-70
2022/04/04 08:48:37;;;;;;;16.27;8.38;;;;;;;7.08;65.98;100963.38;5072225;28;20043;-69
2022/04/04 08:51:03;;;;;;;21.23;8.07;;;;;;;7.18;65.85;100957.31;5061909;28;20044;-69
2022/04/04 08:53:29;;;;;;;21.20;7.53;;;;;;;7.11;64.86;100950.34;5057573;28;20044;-69
2022/04/04 08:55:57;;;;;;;19.40;8.13;;;;;;;7.06;66.05;100953.81;5063051;28;20442;-67
2022/04/04 08:58:23;;;;;;;21.00;7.45;;;;;;;7.16;65.22;100950.34;5070446;28;20041;-67
2022/04/04 09:00:48;;;;;;;17.90;7.95;;;;;;;7.12;64.93;100948.59;5060608;28;20440;-68
2022/04/04 09:03:22;;;;;;;19.08;8.10;;;;;;;7.07;66.07;100943.41;5057898;28;20128;-66
2022/04/04 09:05:56;;;;;;;17.52;8.25;;;;;;;7.04;66.01;100951.19;5058538;28;20466;-68
2022/04/04 09:08:23;;;;;;;32.22;9.52;;;;;;;6.97;66.19;100936.44;5063073;28;20115;-68
2022/04/04 09:10:50;;;;;;;19.00;8.15;;;;;;;6.88;66.64;100941.63;5081152;28;20036;-69
2022/04/04 09:13:19;;;;;;;27.77;8.95;;;;;;;6.76;67.70;100932.03;5061480;28;20075;-67
2022/04/04 09:16:01;;;;;;;23.25;9.02;;;;;;;6.77;68.37;100918.16;5057143;28;20094;-68
2022/04/04 09:18:36;;;;;;;;;;;;;;;6.86;68.16;100936.41;5057009;28;20053;-67
2022/04/04 09:21:03;;;;;;;18.60;8.38;;;;;;;6.73;68.47;100920.75;5056922;28;19923;-69
2022/04/04 09:23:33;;;;;;;23.05;9.30;;;;;;;6.75;68.98;100924.25;5056876;28;20054;-68
2022/04/04 09:26:00;;;;;;;26.48;9.48;;;;;;;6.61;70.08;100917.22;5056939;28;20326;-67
2022/04/04 09:28:26;;;;;;;25.98;8.88;;;;;;;6.66;70.06;100919.00;5063070;28;20093;-68
2022/04/04 09:31:05;;;;;;;19.58;8.75;;;;;;;6.68;70.40;100896.47;5070562;28;20029;-69
2022/04/04 09:33:38;;;;;;;16.48;8.75;;;;;;;6.63;71.95;100905.13;5057947;28;20060;-70
2022/04/04 09:36:04;;;;;;;23.05;9.05;;;;;;;6.56;72.91;100905.09;5055645;28;20091;-68
2022/04/04 09:38:33;;;;;;;23.38;9.27;;;;;;;6.57;73.50;100899.91;5068119;28;20467;-69
2022/04/04 09:41:19;;;;;;;19.52;8.77;;;;;;;6.58;73.68;100899.00;5056784;28;20112;-68
2022/04/04 09:43:53;;;;;;;15.95;9.32;;;;;;;6.38;75.41;100892.91;5073511;28;20036;-67
2022/04/04 09:46:20;;;;;;;21.10;9.90;;;;;;;6.37;76.50;100893.75;5072853;28;20433;-67
2022/04/04 09:49:06;;;;;;;18.05;10.38;;;;;;;6.49;76.63;100890.34;5056527;28;20348;-66
2022/04/04 09:51:45;;;;;;;14.10;10.27;;;;;;;6.36;77.68;100894.63;5058824;28;20037;-57
2022/04/04 09:54:17;;;;;;;17.10;10.02;;;;;;;6.31;77.41;100888.53;5073557;28;20025;-65
2022/04/04 09:56:43;;;;;;;;;;;;;;;6.26;77.01;100888.50;5056771;28;20036;-68
2022/04/04 09:59:11;;;;;;;15.15;9.93;;;;;;;6.17;78.93;100883.25;5062749;28;20263;-70
2022/04/04 10:01:38;;;;;;;16.23;10.20;;;;;;;6.14;79.91;100879.78;5071048;28;20349;-69
2022/04/04 10:04:07;;;;;;;16.58;9.95;;;;;;;6.26;79.29;100878.09;5056074;28;20068;-66
2022/04/04 10:06:33;;;;;;;15.55;9.60;;;;;;;6.20;78.85;100878.09;5064287;28;20090;-68
2022/04/04 10:09:00;;;;;;;20.80;10.25;;;;;;;6.12;80.38;100876.28;5064942;28;20039;-66
2022/04/04 10:11:27;;;;;;;17.52;10.85;;;;;;;6.11;81.86;100874.56;5062812;28;20500;-65
2022/04/04 10:13:53;;;;;;;19.60;11.00;;;;;;;6.14;81.38;100864.19;5060893;28;20033;-67
2022/04/04 10:16:19;;;;;;;19.15;11.60;;;;;;;6.07;83.60;100865.00;5068604;28;20052;-67
2022/04/04 10:18:45;;;;;;;21.88;11.45;;;;;;;6.02;83.06;100858.94;5068865;28;20079;-69
2022/04/04 10:21:11;;;;;;;15.10;9.70;;;;;;;6.09;82.53;100852.91;5074106;28;20024;-68
2022/04/04 10:23:39;;;;;;;20.45;11.85;;;;;;;6.01;84.96;100857.19;5061161;28;20091;-67
2022/04/04 10:26:07;;;;;;;20.75;11.43;;;;;;;5.94;86.13;100862.34;5060280;28;20024;-68
2022/04/04 10:28:35;;;;;;;20.60;10.90;;;;;;;5.94;86.03;100864.94;5069810;28;20037;-69
2022/04/04 10:31:12;;;;;;;18.30;11.45;;;;;;;6.02;85.82;100864.13;5075433;28;20327;-67
2022/04/04 10:33:37;;;;;;;17.17;12.70;;;;;;;5.81;87.62;100852.72;5060896;28;20122;-67
2022/04/04 10:36:05;;;;;;;19.15;12.20;;;;;;;5.90;87.20;100860.59;5055373;28;20072;-68
2022/04/04 10:38:46;;;;;;;20.20;12.18;;;;;;;5.94;88.09;100854.56;5058264;28;20033;-68
2022/04/04 10:41:18;;;;;;;20.00;13.27;;;;;;;5.90;88.84;100857.13;5055522;28;20037;-68
2022/04/04 10:43:46;;;;;;;21.95;13.55;;;;;;;5.81;89.99;100859.66;5058459;28;20039;-67
2022/04/04 10:46:13;;;;;;;19.23;11.32;;;;;;;5.80;90.46;100866.56;5075514;28;20101;-66
2022/04/04 10:48:40;;;;;;;20.25;10.65;;;;;;;5.89;90.23;100856.25;5070172;28;20043;-68
2022/04/04 10:51:08;;;;;;;19.73;13.43;;;;;;;5.76;91.67;100854.41;5068664;28;20086;-67
2022/04/04 10:53:37;;;;;;;20.52;13.02;;;;;;;5.72;91.77;100852.66;5065169;28;20036;-66
2022/04/04 10:56:04;;;;;;;18.98;11.98;;;;;;;5.67;92.70;100837.94;5061530;28;20124;-67
2022/04/04 10:58:29;;;;;;;21.55;12.73;;;;;;;5.64;94.22;100845.69;5054782;28;20487;-67
2022/04/04 11:01:03;;;;;;;21.13;13.38;;;;;;;5.63;95.03;100842.22;5054692;28;20043;-70
2022/04/04 11:03:42;;;;;;;21.30;14.32;;;;;;;5.61;96.44;100838.75;5071083;28;20047;-65
2022/04/04 11:09:00;;;;;;;21.90;14.05;;;;;;;5.64;96.39;100824.91;5075235;28;20051;-66
2022/04/04 11:11:45;;;;;;;18.88;14.13;;;;;;;5.58;98.16;100824.00;5074837;28;20099;-68
2022/04/04 11:14:28;;;;;;;23.75;14.45;;;;;;;5.68;97.49;100819.75;5074991;28;20020;-69
2022/04/04 11:17:06;;;;;;;18.38;13.55;;;;;;;5.68;97.18;100821.50;5071457;28;20078;-69
2022/04/04 11:19:46;;;;;;;19.15;13.68;;;;;;;5.68;97.79;100818.91;5054926;28;20040;-66
2022/04/04 11:22:23;;;;;;;;;;;;;;;;;;;;;
2022/04/04 11:24:55;;;;;;;17.33;13.48;;;;;;;5.56;98.34;100794.56;5056180;28;20037;-67
2022/04/04 11:27:23;;;;;;;19.87;13.57;;;;;;;5.58;97.46;100821.41;5059854;28;20111;-67